Time;durP1;ratioP1;P1;durP2;ratioP2;P2;SDS_P1;SDS_P2;PMS_P1;PMS_P2;Temp;Humidity;BMP_temperature;BMP_pressure;BME280_temperature;BME280_humidity;BME280_pressure;Samples;Min_cycle;Max_cycle;Signal;HPM_P1;HPM_P2
2023/06/14 00:00:52;;;;;;;8.40;3.70;;;;;;;19.59;40.41;98685.00;7314462;39;20264;31
2023/06/14 00:11:33;;;;;;;5.75;4.28;;;;;;;19.38;41.44;98680.91;7295516;39;21101;31
2023/06/14 00:17:08;;;;;;;4.70;3.90;;;;;;;19.25;42.24;98675.66;7322503;39;20262;31
2023/06/14 00:22:30;;;;;;;4.30;3.70;;;;;;;19.20;41.99;98672.81;7308576;39;20245;31
2023/06/14 00:28:06;;;;;;;4.50;4.00;;;;;;;19.16;41.84;98668.88;7279391;40;20253;31
2023/06/14 00:33:26;;;;;;;5.72;4.22;;;;;;;19.16;41.44;98672.44;7238837;40;20351;31
2023/06/14 00:38:46;;;;;;;6.40;4.00;;;;;;;19.09;41.66;98670.88;7215842;40;20316;31
2023/06/14 00:49:39;;;;;;;6.73;4.50;;;;;;;18.95;42.28;98662.06;7257010;39;21174;31
2023/06/14 00:55:14;;;;;;;4.50;4.10;;;;;;;18.85;43.26;98670.81;7240290;40;20241;31
2023/06/14 01:00:34;;;;;;;5.67;4.10;;;;;;;18.81;43.25;98674.25;7212404;40;20368;31
2023/06/14 01:11:16;;;;;;;7.00;4.30;;;;;;;18.74;42.29;98677.06;7218062;40;20347;31
2023/06/14 01:16:52;;;;;;;5.60;4.37;;;;;;;18.83;42.37;98678.41;7245058;39;20342;31
2023/06/14 01:22:25;;;;;;;5.20;3.70;;;;;;;18.84;42.90;98684.69;7218008;40;20347;31
2023/06/14 01:28:00;;;;;;;6.60;4.50;;;;;;;18.75;43.37;98683.34;7178819;40;20360;31
2023/06/14 01:33:36;;;;;;;7.50;4.03;;;;;;;18.69;43.27;98687.84;7196421;40;20237;31
2023/06/14 01:39:11;;;;;;;8.63;4.20;;;;;;;18.64;43.43;98695.91;7280591;39;20261;31
2023/06/14 01:44:47;;;;;;;6.90;4.30;;;;;;;18.53;43.45;98698.56;7247501;40;20406;31
2023/06/14 01:50:23;;;;;;;5.98;4.18;;;;;;;18.65;43.27;98697.56;7285072;39;20253;31
2023/06/14 01:55:58;;;;;;;4.64;3.96;;;;;;;18.66;43.47;98699.22;7277314;40;20249;31
2023/06/14 02:07:34;;;;;;;5.73;4.27;;;;;;;18.60;43.65;98686.53;7313144;39;20251;31
2023/06/14 02:13:09;;;;;;;6.80;4.25;;;;;;;18.51;43.58;98698.78;7312513;39;20260;31
2023/06/14 02:18:30;;;;;;;4.30;3.80;;;;;;;18.40;44.67;98692.19;7303264;39;20371;31
2023/06/14 02:24:03;;;;;;;5.50;4.10;;;;;;;18.19;45.18;98691.81;7298450;39;20248;31
2023/06/14 02:29:38;;;;;;;4.73;4.23;;;;;;;18.27;44.57;98699.69;7226994;40;20242;31
2023/06/14 02:34:59;;;;;;;6.25;4.45;;;;;;;18.19;45.46;98694.56;7220767;40;20333;31
2023/06/14 02:40:34;;;;;;;6.30;3.90;;;;;;;18.05;46.28;98690.31;7261671;40;20346;31
2023/06/14 02:45:52;;;;;;;5.87;4.00;;;;;;;18.13;44.98;98699.03;7256863;40;20237;31
2023/06/14 02:51:13;;;;;;;7.17;4.20;;;;;;;18.08;44.82;98701.59;7267755;39;20426;31
2023/06/14 02:56:49;;;;;;;6.47;3.80;;;;;;;17.90;46.13;98699.69;7278882;40;20263;31
2023/06/14 03:02:10;;;;;;;5.90;4.60;;;;;;;17.85;46.10;98702.28;7273114;40;20251;31
2023/06/14 03:07:31;;;;;;;6.20;4.20;;;;;;;17.78;46.30;98704.22;7322885;39;20317;31
2023/06/14 03:13:07;;;;;;;6.57;4.43;;;;;;;17.64;46.91;98708.13;7299525;39;20356;31
2023/06/14 03:18:42;;;;;;;7.33;4.07;;;;;;;17.57;46.32;98710.06;7256689;39;20283;31
2023/06/14 03:29:22;;;;;;;6.70;4.03;;;;;;;17.54;46.51;98710.50;7231129;40;21394;31
2023/06/14 03:34:45;;;;;;;5.07;4.17;;;;;;;17.53;46.43;98711.56;7276252;40;20349;31
2023/06/14 03:45:21;;;;;;;6.85;3.90;;;;;;;17.70;47.26;98725.47;7317069;39;20275;31
2023/06/14 03:55:46;;;;;;;4.53;4.13;;;;;;;17.71;46.47;98733.44;7293950;39;21211;31
2023/06/14 04:06:31;;;;;;;4.30;3.90;;;;;;;17.80;47.07;98748.47;7274140;39;21234;31
2023/06/14 04:17:06;;;;;;;4.23;3.83;;;;;;;17.92;46.88;98749.38;7302876;39;21050;31
2023/06/14 04:22:43;;;;;;;4.80;3.80;;;;;;;18.00;47.12;98756.44;7319445;39;20278;31
2023/06/14 04:33:07;;;;;;;5.12;3.88;;;;;;;18.01;46.28;98761.69;7320243;39;21096;31
2023/06/14 04:43:48;;;;;;;6.20;4.10;;;;;;;17.91;47.48;98772.25;7317956;39;20283;31
2023/06/14 04:49:20;;;;;;;8.70;4.60;;;;;;;18.03;46.26;98783.28;7134156;39;20254;31
2023/06/14 04:54:55;;;;;;;6.93;4.00;;;;;;;18.08;46.50;98788.06;7296508;39;20254;31
2023/06/14 05:00:32;;;;;;;4.30;3.55;;;;;;;18.07;46.90;98786.38;7282167;39;20330;31
2023/06/14 05:05:53;;;;;;;6.33;4.10;;;;;;;18.24;46.76;98798.38;7206717;40;20457;31
2023/06/14 05:11:10;;;;;;;5.30;3.90;;;;;;;18.42;45.90;98791.06;7229576;40;20249;31
2023/06/14 05:16:48;;;;;;;6.70;4.47;;;;;;;18.50;45.57;98797.25;7216718;40;20292;31
2023/06/14 05:22:06;;;;;;;9.62;4.44;;;;;;;18.68;45.07;98800.88;7217409;40;20348;31
2023/06/14 05:27:41;;;;;;;6.80;4.40;;;;;;;18.80;45.39;98809.12;7241176;39;20336;31
2023/06/14 05:33:17;;;;;;;8.10;4.47;;;;;;;18.90;46.17;98802.06;7261245;40;20248;31
2023/06/14 05:38:57;;;;;;;7.47;4.33;;;;;;;19.10;45.90;98809.97;7198636;40;20246;31
2023/06/14 05:44:27;;;;;;;8.23;4.57;;;;;;;19.32;45.34;98815.78;7217906;40;20245;31
2023/06/14 05:50:03;;;;;;;9.80;4.70;;;;;;;19.53;45.17;98825.38;7207056;40;20300;31
2023/06/14 05:55:23;;;;;;;12.07;5.07;;;;;;;19.75;44.82;98827.34;7240330;40;20331;31
2023/06/14 06:00:41;;;;;;;7.28;4.07;;;;;;;19.95;45.09;98826.19;7225031;40;20260;31
2023/06/14 06:06:19;;;;;;;7.73;3.97;;;;;;;20.12;44.55;98832.63;7249306;40;20252;31
2023/06/14 06:11:53;;;;;;;5.70;4.03;;;;;;;20.34;44.18;98832.91;7266380;39;20244;31
2023/06/14 06:17:28;;;;;;;7.18;3.92;;;;;;;20.50;42.65;98833.00;7281392;40;20245;31
2023/06/14 06:23:04;;;;;;;8.50;4.20;;;;;;;20.67;42.80;98846.81;7201978;40;20242;31
2023/06/14 06:28:39;;;;;;;6.37;3.85;;;;;;;20.73;42.65;98845.84;7187708;40;20267;31
2023/06/14 06:34:14;;;;;;;10.30;4.50;;;;;;;20.92;42.64;98855.59;7178284;40;20420;31
2023/06/14 06:39:50;;;;;;;5.35;4.32;;;;;;;21.05;41.74;98858.06;7156732;40;20242;31
2023/06/14 06:45:11;;;;;;;7.75;4.62;;;;;;;21.13;41.34;98870.59;7217740;40;20343;31
2023/06/14 06:50:46;;;;;;;9.23;4.10;;;;;;;21.23;41.33;98869.97;7257858;40;20247;31
2023/06/14 06:56:23;;;;;;;7.35;4.10;;;;;;;21.32;41.22;98883.06;7230974;40;20489;31
2023/06/14 07:01:57;;;;;;;8.05;4.15;;;;;;;21.53;41.49;98887.03;7226572;40;21094;31
2023/06/14 07:07:32;;;;;;;6.40;4.32;;;;;;;21.61;41.64;98892.09;7186497;40;20239;31
2023/06/14 07:13:08;;;;;;;6.40;4.37;;;;;;;21.68;40.95;98895.53;7222009;40;20241;31
2023/06/14 07:18:28;;;;;;;6.87;4.30;;;;;;;21.90;40.36;98903.87;7245885;40;20272;31
2023/06/14 07:24:04;;;;;;;9.00;4.20;;;;;;;22.12;41.56;98906.78;7214433;40;20250;31
2023/06/14 07:29:40;;;;;;;6.60;4.28;;;;;;;22.33;40.50;98912.38;7181958;40;20418;31
2023/06/14 07:35:15;;;;;;;7.22;4.45;;;;;;;22.53;40.51;98913.78;7219141;40;20343;31
2023/06/14 07:40:48;;;;;;;10.10;4.57;;;;;;;22.69;40.40;98919.28;7263090;39;21132;31
2023/06/14 07:46:24;;;;;;;8.20;4.55;;;;;;;22.89;39.79;98918.78;7236427;40;20308;31
2023/06/14 07:51:59;;;;;;;8.63;4.70;;;;;;;23.03;39.48;98914.56;7217601;40;20253;31
2023/06/14 08:02:39;;;;;;;11.07;4.45;;;;;;;23.22;39.65;98918.66;7209673;40;21128;31
2023/06/14 08:08:00;;;;;;;6.60;4.50;;;;;;;23.40;39.37;98920.28;7265156;39;20277;31
2023/06/14 08:13:18;;;;;;;6.70;4.10;;;;;;;23.48;37.82;98917.09;7312965;39;20426;31
2023/06/14 08:18:54;;;;;;;8.82;4.87;;;;;;;23.55;38.91;98911.41;7341070;39;20256;31
2023/06/14 08:24:15;;;;;;;10.15;4.10;;;;;;;23.74;38.37;98915.47;7318043;39;20251;31
2023/06/14 08:29:51;;;;;;;8.15;4.60;;;;;;;23.87;37.75;98920.56;7299467;39;20272;31
2023/06/14 08:40:34;;;;;;;7.20;4.53;;;;;;;24.12;37.45;98920.00;7297882;39;21043;31
2023/06/14 08:46:11;;;;;;;6.20;4.50;;;;;;;24.30;37.87;98925.16;7258682;40;20265;31
2023/06/14 08:51:44;;;;;;;9.32;4.40;;;;;;;24.64;36.63;98922.94;7266111;39;20297;31
2023/06/14 08:57:21;;;;;;;5.52;4.70;;;;;;;24.85;36.88;98921.16;7281315;39;20245;31
2023/06/14 09:02:57;;;;;;;7.90;4.65;;;;;;;24.86;35.97;98911.84;7267423;39;20338;31
2023/06/14 09:08:31;;;;;;;8.62;4.40;;;;;;;24.90;36.46;98922.06;7296691;39;20326;31
2023/06/14 09:14:02;;;;;;;7.04;4.66;;;;;;;24.89;37.09;98919.56;7308511;39;20268;31
2023/06/14 09:19:37;;;;;;;5.55;4.35;;;;;;;25.11;36.78;98917.50;7266190;40;20242;31
2023/06/14 09:24:58;;;;;;;6.67;4.20;;;;;;;25.49;35.27;98921.81;7307700;39;20356;31
2023/06/14 09:30:34;;;;;;;8.52;4.57;;;;;;;25.49;35.02;98917.09;7313654;39;20269;31
2023/06/14 09:41:12;;;;;;;8.18;4.85;;;;;;;25.73;35.20;98917.50;7279366;40;21220;31
2023/06/14 09:51:53;;;;;;;6.40;4.00;;;;;;;26.07;34.12;98931.66;7294399;39;20502;31
2023/06/14 10:02:38;;;;;;;8.85;3.92;;;;;;;26.19;32.48;98926.72;7338652;39;20275;31
2023/06/14 10:08:16;;;;;;;5.60;3.46;;;;;;;26.11;32.52;98931.97;7255540;40;20432;31
2023/06/14 10:13:52;;;;;;;6.65;3.90;;;;;;;26.28;32.55;98935.34;7233008;40;20311;31
2023/06/14 10:19:34;;;;;;;4.85;3.75;;;;;;;26.24;31.26;98926.75;7217596;40;20242;31
2023/06/14 10:25:07;;;;;;;7.80;3.34;;;;;;;26.41;31.44;98929.25;7210089;40;20261;31
2023/06/14 10:30:41;;;;;;;5.20;3.30;;;;;;;26.52;31.60;98935.59;7246875;39;20281;31
2023/06/14 10:36:24;;;;;;;9.25;3.60;;;;;;;26.79;30.78;98923.16;7256287;40;20249;31
2023/06/14 10:42:07;;;;;;;5.28;3.20;;;;;;;27.01;30.04;98919.28;7254470;40;20240;31
2023/06/14 10:47:42;;;;;;;7.80;3.53;;;;;;;27.04;30.33;98919.53;7222140;40;20273;31
2023/06/14 10:53:18;;;;;;;5.55;3.40;;;;;;;27.15;30.71;98923.12;7222586;40;20258;31
2023/06/14 10:58:56;;;;;;;4.90;3.40;;;;;;;27.07;30.63;98921.75;7219406;40;20273;31
2023/06/14 11:10:21;;;;;;;3.25;2.95;;;;;;;27.46;30.34;98930.22;7297603;39;21390;31
2023/06/14 11:15:58;;;;;;;4.80;3.33;;;;;;;27.68;30.24;98914.09;7243474;40;20235;31
2023/06/14 11:21:33;;;;;;;7.28;3.20;;;;;;;27.57;27.97;98929.06;7285499;39;20394;31
2023/06/14 11:26:50;;;;;;;3.35;2.90;;;;;;;27.54;27.79;98921.34;7112778;39;20325;31
2023/06/14 11:32:27;;;;;;;6.05;3.50;;;;;;;27.59;29.30;98918.56;7289960;39;20319;31
2023/06/14 11:38:03;;;;;;;5.32;3.05;;;;;;;27.82;28.68;98919.00;7256651;40;20455;31
2023/06/14 11:43:39;;;;;;;4.40;2.60;;;;;;;27.87;27.26;98907.84;7229517;40;20257;31
2023/06/14 11:49:15;;;;;;;5.17;3.37;;;;;;;27.93;28.16;98915.88;7255233;40;20261;31
2023/06/14 11:54:50;;;;;;;5.40;2.90;;;;;;;28.03;27.84;98899.19;7250328;40;20392;31
2023/06/14 12:00:27;;;;;;;7.78;2.95;;;;;;;27.93;27.94;98906.72;7198395;40;20527;31
2023/06/14 12:06:02;;;;;;;5.80;3.00;;;;;;;27.89;27.44;98906.47;7192760;40;20258;31
2023/06/14 12:11:37;;;;;;;6.43;2.60;;;;;;;27.85;28.70;98902.63;7237177;40;20444;31
2023/06/14 12:17:19;;;;;;;4.95;2.65;;;;;;;27.84;27.78;98911.22;7231361;40;20261;31
2023/06/14 12:22:57;;;;;;;5.60;2.50;;;;;;;27.74;27.42;98914.88;7269230;40;20281;31
2023/06/14 12:33:37;;;;;;;4.37;2.62;;;;;;;28.14;27.72;98913.81;7257822;40;20261;31
2023/06/14 12:39:13;;;;;;;3.10;2.80;;;;;;;28.17;26.30;98902.19;7265065;40;20298;31
2023/06/14 12:44:40;;;;;;;5.37;2.83;;;;;;;28.08;28.05;98901.09;7246503;40;20260;31
2023/06/14 12:50:09;;;;;;;6.70;2.83;;;;;;;28.15;27.83;98905.22;7296482;39;20312;31
2023/06/14 12:55:45;;;;;;;3.15;2.70;;;;;;;28.35;26.76;98911.72;7270354;39;20257;31
2023/06/14 13:01:20;;;;;;;5.57;2.77;;;;;;;28.32;27.22;98915.06;7185227;40;20257;31
2023/06/14 13:06:56;;;;;;;4.55;2.80;;;;;;;28.17;26.66;98916.84;7178690;40;20261;31
2023/06/14 13:12:32;;;;;;;3.00;2.68;;;;;;;28.24;28.04;98913.75;7176981;40;20457;31
2023/06/14 13:18:08;;;;;;;2.83;2.50;;;;;;;28.30;27.07;98907.06;7200621;40;20270;31
2023/06/14 13:23:43;;;;;;;4.05;2.70;;;;;;;28.31;26.81;98907.88;7248233;40;20307;31
2023/06/14 13:29:20;;;;;;;4.40;2.80;;;;;;;28.48;28.01;98917.44;7225126;40;20441;31
2023/06/14 13:34:56;;;;;;;5.80;2.70;;;;;;;28.71;27.50;98913.09;7195820;40;20247;31
2023/06/14 13:40:31;;;;;;;5.72;3.22;;;;;;;28.94;26.84;98914.28;7197179;40;20254;31
2023/06/14 13:46:07;;;;;;;6.95;2.80;;;;;;;27.91;28.20;98922.81;7236358;40;20268;31
2023/06/14 13:51:43;;;;;;;3.55;2.80;;;;;;;27.73;28.16;98910.47;7248886;39;20250;31
2023/06/14 13:57:04;;;;;;;5.40;2.95;;;;;;;27.97;27.58;98910.56;7241042;40;20340;31
2023/06/14 14:02:40;;;;;;;6.05;2.85;;;;;;;28.13;28.55;98906.59;7245484;40;20233;31
2023/06/14 14:08:15;;;;;;;4.50;3.10;;;;;;;28.14;27.39;98922.12;7254195;39;20256;31
2023/06/14 14:18:55;;;;;;;5.65;3.00;;;;;;;28.19;27.72;98900.75;7311055;39;20267;31
2023/06/14 14:24:30;;;;;;;7.22;3.15;;;;;;;28.31;27.14;98903.16;7265372;39;20234;31
2023/06/14 14:29:50;;;;;;;4.62;2.90;;;;;;;28.31;27.87;98914.25;7299366;39;20259;31
2023/06/14 14:35:30;;;;;;;12.62;3.32;;;;;;;28.17;28.24;98902.97;7239542;40;20253;31
2023/06/14 14:41:02;;;;;;;6.35;3.00;;;;;;;28.07;27.75;98903.03;7198232;40;20349;31
2023/06/14 14:46:23;;;;;;;4.80;2.78;;;;;;;28.08;28.46;98912.19;7195819;40;20265;31
2023/06/14 14:51:58;;;;;;;6.90;3.05;;;;;;;27.82;28.15;98908.72;7235221;40;20331;31
2023/06/14 14:57:18;;;;;;;4.78;2.97;;;;;;;27.86;27.92;98895.16;7259530;40;20252;31
2023/06/14 15:02:53;;;;;;;5.20;2.85;;;;;;;28.08;28.68;98895.56;7294540;39;20272;31
2023/06/14 15:08:29;;;;;;;5.65;3.00;;;;;;;27.94;27.61;98886.22;7262421;40;20277;31
2023/06/14 15:14:04;;;;;;;4.45;2.95;;;;;;;28.07;28.57;98899.44;7268897;39;20276;31
2023/06/14 15:19:39;;;;;;;3.77;3.20;;;;;;;28.28;27.96;98900.12;7229018;40;20238;31
2023/06/14 15:25:15;;;;;;;3.75;3.20;;;;;;;28.14;28.35;98892.47;7239443;39;20253;31
2023/06/14 15:30:36;;;;;;;6.80;3.10;;;;;;;28.02;28.37;98905.00;7216964;40;20433;31
2023/06/14 15:35:56;;;;;;;4.50;2.87;;;;;;;27.95;28.44;98904.50;7268973;39;20315;31
2023/06/14 15:41:31;;;;;;;4.47;3.43;;;;;;;27.95;28.48;98912.81;7331577;39;20263;31
2023/06/14 15:46:52;;;;;;;4.43;3.00;;;;;;;27.96;27.54;98903.37;7313787;39;20253;31
2023/06/14 15:52:12;;;;;;;4.05;2.75;;;;;;;28.01;27.68;98897.81;7312341;39;20381;31
2023/06/14 15:57:47;;;;;;;5.07;2.92;;;;;;;28.05;28.21;98888.63;7323056;39;20305;31
2023/06/14 16:03:22;;;;;;;4.53;2.65;;;;;;;28.04;28.50;98889.72;7274728;39;20260;31
2023/06/14 16:08:56;;;;;;;6.10;3.03;;;;;;;28.15;28.24;98885.81;7266603;40;20311;31
2023/06/14 16:14:33;;;;;;;4.70;3.30;;;;;;;27.96;28.31;98889.50;7180077;40;20248;31
2023/06/14 16:20:08;;;;;;;3.10;2.80;;;;;;;27.73;27.66;98891.06;7180942;40;20341;31
2023/06/14 16:25:29;;;;;;;6.03;2.90;;;;;;;27.68;28.39;98893.88;7172457;40;20465;31
2023/06/14 16:31:00;;;;;;;4.82;3.05;;;;;;;27.73;28.48;98896.59;7178716;40;20247;31
2023/06/14 16:36:36;;;;;;;6.00;3.28;;;;;;;27.68;29.37;98889.16;7247408;40;20273;31
2023/06/14 16:41:57;;;;;;;4.83;2.98;;;;;;;27.61;29.01;98894.16;7208131;40;20468;31
2023/06/14 16:47:34;;;;;;;3.47;2.85;;;;;;;27.39;29.34;98901.97;7244712;40;20382;31
2023/06/14 16:58:14;;;;;;;3.80;2.95;;;;;;;27.26;29.60;98905.34;7262857;39;20268;31
2023/06/14 17:03:50;;;;;;;5.80;2.90;;;;;;;27.13;29.42;98908.72;7283236;39;20263;31
2023/06/14 17:09:10;;;;;;;4.95;3.30;;;;;;;27.00;29.77;98914.84;7306650;39;20465;31
2023/06/14 17:14:30;;;;;;;5.20;3.08;;;;;;;26.85;29.67;98927.59;7343389;39;20429;31
2023/06/14 17:20:06;;;;;;;5.20;3.37;;;;;;;26.61;30.83;98926.50;7338404;39;20275;31
2023/06/14 17:25:26;;;;;;;3.67;3.22;;;;;;;26.40;30.35;98936.72;7344555;39;20256;31
2023/06/14 17:30:46;;;;;;;5.12;3.12;;;;;;;26.23;30.94;98943.63;7323948;39;20332;31
2023/06/14 17:36:22;;;;;;;6.68;3.25;;;;;;;26.12;31.37;98937.19;7293856;40;20256;31
2023/06/14 17:41:42;;;;;;;5.53;3.40;;;;;;;26.03;31.06;98947.13;7241996;40;20360;31
2023/06/14 17:47:17;;;;;;;4.90;3.33;;;;;;;25.90;31.69;98934.66;7251796;40;20260;31
2023/06/14 17:52:53;;;;;;;4.72;2.97;;;;;;;25.86;30.77;98943.78;7278829;40;20268;31
2023/06/14 17:58:25;;;;;;;5.23;3.03;;;;;;;25.72;31.54;98948.16;7041722;40;20229;31
2023/06/14 18:04:00;;;;;;;4.00;3.00;;;;;;;25.65;32.11;98953.09;7237984;40;20374;31
2023/06/14 18:09:36;;;;;;;4.05;3.25;;;;;;;25.63;31.38;98947.00;7258204;40;20273;31
2023/06/14 18:20:16;;;;;;;5.20;3.20;;;;;;;25.51;32.43;98961.00;7309972;39;20279;31
2023/06/14 18:25:53;;;;;;;3.47;3.17;;;;;;;25.28;31.76;98962.28;7300360;39;20258;31
2023/06/14 18:36:33;;;;;;;3.38;3.02;;;;;;;25.31;32.53;98970.03;7319065;39;20276;31
2023/06/14 18:47:13;;;;;;;3.50;3.00;;;;;;;25.21;32.51;98974.66;7279222;39;20286;31
2023/06/14 18:52:49;;;;;;;5.94;3.02;;;;;;;25.18;32.77;98980.72;7339068;39;20246;31
2023/06/14 19:03:29;;;;;;;3.70;3.10;;;;;;;25.13;33.46;98993.38;7337596;39;21736;31
2023/06/14 19:13:54;;;;;;;6.20;3.10;;;;;;;24.87;33.83;98997.06;7283216;40;20416;31
2023/06/14 19:19:30;;;;;;;5.25;3.78;;;;;;;24.63;33.73;99001.22;7317467;39;20248;31
2023/06/14 19:24:52;;;;;;;7.12;3.15;;;;;;;24.44;34.50;99002.72;7277650;39;20240;31
2023/06/14 19:30:26;;;;;;;3.52;3.02;;;;;;;24.36;34.62;99003.16;7301810;39;20274;31
2023/06/14 19:36:02;;;;;;;6.34;3.28;;;;;;;24.17;34.97;99014.56;7259373;40;20251;31
2023/06/14 19:41:38;;;;;;;5.93;3.10;;;;;;;23.99;36.34;99014.88;7271265;39;20251;31
2023/06/14 19:47:14;;;;;;;4.03;3.30;;;;;;;23.75;36.68;99022.56;7278245;40;20267;31
2023/06/14 19:52:50;;;;;;;4.10;3.12;;;;;;;23.51;36.22;99025.84;7279313;39;20315;31
2023/06/14 19:58:11;;;;;;;3.85;2.90;;;;;;;23.38;36.26;99040.75;7258759;40;20242;31
2023/06/14 20:03:31;;;;;;;7.40;3.55;;;;;;;23.24;36.91;99039.44;7264740;40;20260;31
2023/06/14 20:09:11;;;;;;;6.27;4.10;;;;;;;23.06;37.00;99050.72;7256679;40;20434;31
2023/06/14 20:14:43;;;;;;;5.22;3.40;;;;;;;22.91;37.12;99054.88;7284641;39;20333;31
2023/06/14 20:20:03;;;;;;;4.20;3.20;;;;;;;22.75;37.54;99060.38;7299463;39;20266;31
2023/06/14 20:25:38;;;;;;;3.95;3.33;;;;;;;22.54;38.12;99052.81;7326190;39;20260;31
2023/06/14 20:30:58;;;;;;;3.50;3.03;;;;;;;22.41;38.55;99059.47;7229719;40;20308;31
2023/06/14 20:36:33;;;;;;;7.60;2.90;;;;;;;22.26;39.05;99062.75;7245714;40;20261;31
2023/06/14 20:42:12;;;;;;;3.90;3.42;;;;;;;22.10;39.65;99052.56;7296872;39;20244;31
2023/06/14 20:52:49;;;;;;;4.20;3.50;;;;;;;21.84;39.50;99064.06;7259281;40;20455;31
2023/06/14 20:58:26;;;;;;;5.40;3.10;;;;;;;21.77;39.87;99058.69;7295787;39;20248;31
2023/06/14 21:03:46;;;;;;;3.67;3.00;;;;;;;21.76;40.05;99067.19;7287323;39;20244;31
2023/06/14 21:09:07;;;;;;;3.28;2.90;;;;;;;21.68;39.95;99067.53;7258142;40;20249;31
2023/06/14 21:14:42;;;;;;;3.62;2.87;;;;;;;21.59;39.55;99062.41;7238081;40;20307;31
2023/06/14 21:20:17;;;;;;;2.75;2.50;;;;;;;21.58;40.27;99071.75;7222749;40;20261;31
2023/06/14 21:25:53;;;;;;;4.47;2.77;;;;;;;21.59;40.80;99064.31;7248370;40;20332;31
2023/06/14 21:31:28;;;;;;;4.50;2.60;;;;;;;21.55;40.51;99061.25;7220081;40;20332;31
2023/06/14 21:37:04;;;;;;;5.32;3.20;;;;;;;21.48;40.62;99059.69;7243884;40;20280;31
2023/06/14 21:42:24;;;;;;;3.10;2.50;;;;;;;21.39;41.46;99077.59;7221075;40;20262;31
2023/06/14 21:47:59;;;;;;;3.00;2.70;;;;;;;21.26;40.64;99070.44;7209987;40;20345;31
2023/06/14 21:53:35;;;;;;;2.75;2.55;;;;;;;21.19;40.67;99083.44;7199100;40;20242;31
2023/06/14 21:58:56;;;;;;;4.03;2.60;;;;;;;21.06;41.57;99073.50;7228233;40;20312;31
2023/06/14 22:04:31;;;;;;;4.82;3.12;;;;;;;20.94;41.78;99075.41;7209843;40;20311;31
2023/06/14 22:10:06;;;;;;;5.00;3.00;;;;;;;20.96;41.91;99076.00;7247236;40;20244;31
2023/06/14 22:15:45;;;;;;;4.93;2.80;;;;;;;21.08;41.49;99078.75;7190892;40;20262;31
2023/06/14 22:26:26;;;;;;;3.08;2.60;;;;;;;21.15;41.10;99074.00;7185712;40;20393;31
2023/06/14 22:31:58;;;;;;;5.15;3.05;;;;;;;21.15;41.13;99081.44;7249971;40;20316;31
2023/06/14 22:37:37;;;;;;;3.22;2.70;;;;;;;21.11;40.93;99086.50;7289203;39;20245;31
2023/06/14 22:43:16;;;;;;;4.62;2.90;;;;;;;21.06;41.09;99080.91;7235317;40;20270;31
2023/06/14 22:48:51;;;;;;;4.82;3.08;;;;;;;21.05;41.86;99091.03;7275569;39;20455;31
2023/06/14 22:54:24;;;;;;;3.25;2.90;;;;;;;20.93;42.83;99086.63;7265688;40;20262;31
2023/06/14 23:00:01;;;;;;;2.87;2.58;;;;;;;20.74;41.91;99085.03;7240112;40;20242;31
2023/06/14 23:05:38;;;;;;;6.00;2.70;;;;;;;20.64;41.69;99091.06;7181708;40;20354;31
2023/06/14 23:10:57;;;;;;;2.96;2.60;;;;;;;20.59;42.24;99091.75;7227742;40;20242;31
2023/06/14 23:16:35;;;;;;;3.43;2.80;;;;;;;20.46;42.16;99088.38;7257452;40;20241;31
2023/06/14 23:21:58;;;;;;;2.97;2.67;;;;;;;20.45;43.47;99095.75;7308452;39;20344;31
2023/06/14 23:27:15;;;;;;;4.50;2.75;;;;;;;20.44;42.27;99094.13;7322985;39;20465;31
2023/06/14 23:32:51;;;;;;;3.70;2.70;;;;;;;20.28;43.16;99086.50;7342028;39;20337;31
2023/06/14 23:38:12;;;;;;;3.17;2.80;;;;;;;20.32;42.14;99087.72;7288475;39;20240;31
2023/06/14 23:43:33;;;;;;;4.70;2.80;;;;;;;20.25;42.83;99087.81;7279010;39;20266;31
2023/06/14 23:49:08;;;;;;;3.72;2.60;;;;;;;20.36;42.18;99093.59;7258186;40;20256;31
2023/06/14 23:54:45;;;;;;;3.33;3.03;;;;;;;20.61;41.74;99102.50;7222010;40;20270;31
